Latest Coastal Weather Observations for Cocos Island

IDW60701

Issued at 9:52 am WST Saturday 4 July 2015 (issued every 10 minutes, with the page automatically refreshed every 10 minutes)

About coastal observations | Map of coastal stations | Coastal observations for WA | Marine services | Other Formats
Station Details ID: 200284 Name: COCOS ISLAND AIRPORT Lat: -12.19 Lon: 96.83 Height: 3.0 m
Data from the previous 72 hours. | See also: Recent months at Cocos Island
Date/Time
WST
Temp

°C
Wind Pressure Rain
since 9am
mm
Weather Cloud Vis
km
Sea
Height
m
Swell
Dir
 
Speed
knots
Gust
knots
hPa Trend Height
m
Period
s
Dir
04/09:30am 24.6 E 15 22 1015.1 - 4.2 Drizzle Partly cloudy 10 - - - -
04/09:00am 24.4 E 15 21 1014.7 - 4.2 Rain Mostly clear 10 - - - -
04/08:30am 24.2 ESE 15 20 1014.3 - 4.2 - Mostly clear 10 - - - -
04/08:18am 24.1 ESE 14 18 1014.3 - 4.2 - Partly cloudy 10 - - - -
04/08:00am 23.8 ESE 20 25 1014.2 - 4.0 Rain Mostly cloudy 6 - - - -
04/07:45am 24.4 SE 21 25 1014.1 - 3.8 Showers Partly cloudy 5 - - - -
04/07:30am 25.1 SE 19 24 1013.9 - 3.8 - Mostly clear 10 - - - -
04/07:00am 25.5 ESE 16 22 1013.7 - 3.8 - Mostly clear 10 - - - -
04/06:30am 25.3 ESE 14 21 1013.6 - 3.8 - Partly cloudy 10 - - - -
04/06:00am 25.1 ESE 16 23 1013.5 - 3.8 - Partly cloudy 10 - - - -
04/05:53am 25.1 ESE 16 21 1013.5 - 3.8 - Partly cloudy 10 - - - -
04/05:30am 24.6 E 12 19 1013.5 - 3.4 - Partly cloudy 7 - - - -
04/05:28am 24.6 E 12 17 1013.5 - 3.4 - Partly cloudy 6 - - - -
04/05:00am 25.3 SE 11 16 1013.5 - 3.2 - Mostly cloudy 10 - - - -
04/04:32am 24.7 SE 15 19 1013.5 - 3.2 - Partly cloudy 10 - - - -
04/04:30am 24.7 SE 15 19 1013.5 - 3.2 - Partly cloudy 10 - - - -
04/04:23am 24.7 ESE 15 19 1013.6 - 3.2 - Partly cloudy 8 - - - -
04/04:12am 23.8 SE 5 7 1013.8 - 2.8 - Partly cloudy 6 - - - -
04/04:00am 23.9 E 7 10 1013.8 - 1.6 - Partly cloudy 9 - - - -
04/03:48am 24.0 ESE 6 8 1014.1 - 1.4 - Partly cloudy 10 - - - -
04/03:30am 24.0 SSE 13 20 1014.2 - 1.4 - Partly cloudy 2 - - - -
04/03:27am 24.4 SSE 13 20 1014.3 - 0.6 - Partly cloudy 6 - - - -
04/03:00am 24.5 SSE 12 16 1014.3 - 0.0 - - 10 - - - -
04/02:30am 24.3 SSE 13 16 1014.4 - 0.0 - Partly cloudy 10 - - - -
04/02:00am 24.8 SSE 13 18 1014.9 - 0.0 - Mostly clear 10 - - - -
04/01:30am 24.5 SSE 10 13 1015.2 - 0.0 - Partly cloudy 10 - - - -
04/01:00am 24.5 SSE 14 18 1015.5 - 0.0 - Partly cloudy 10 - - - -
04/12:30am 25.0 SE 14 19 1015.7 - 0.0 - - 10 - - - -
04/12:00am 25.9 SE 12 17 1015.9 - 0.0 - Partly cloudy 10 - - - -
 
Date/Time
WST
Temp

°C
Wind Pressure Rain
since 9am
mm
Weather Cloud Vis
km
Sea
Height
m
Swell
Dir
 
Speed
knots
Gust
knots
hPa Trend Height
m
Period
s
Dir
03/11:30pm 25.9 SE 12 16 1016.2 - 0.0 - Partly cloudy 10 - - - -
03/11:00pm 25.9 SE 10 14 1016.2 - 0.0 - - 10 - - - -
03/10:30pm 26.1 SE 13 17 1016.1 - 0.0 - Partly cloudy 10 - - - -
03/10:00pm 26.2 SE 13 17 1016.0 - 0.0 - Partly cloudy 10 - - - -
03/09:30pm 26.2 SE 13 18 1015.8 - 0.0 - Partly cloudy 10 - - - -
03/09:00pm 26.2 SE 14 18 1015.7 - 0.0 - - 10 - - - -
03/08:30pm 26.3 SE 14 18 1015.3 - 0.0 - - 10 - - - -
03/08:00pm 26.4 SE 14 20 1015.1 - 0.0 - Mostly clear 10 - - - -
03/07:30pm 26.4 SE 15 21 1014.7 - 0.0 - Partly cloudy 10 - - - -
03/07:00pm 26.6 SE 15 20 1014.5 - 0.0 - Partly cloudy 10 - - - -
03/06:30pm 26.9 SE 15 20 1014.1 - 0.0 - Partly cloudy 10 - - - -
03/06:00pm 27.1 SE 17 21 1014.0 - 0.0 - Partly cloudy 10 - - - -
03/05:30pm 27.3 SE 16 22 1014.1 - 0.0 - Partly cloudy 10 - - - -
03/05:00pm 27.7 SE 15 19 1014.0 - 0.0 Fine Partly cloudy 20 - - - -
03/04:30pm 28.0 SE 16 22 1014.1 - 0.0 - Partly cloudy 10 - - - -
03/04:00pm 27.8 SE 15 20 1014.3 - 0.0 - Partly cloudy 10 - - - -
03/03:30pm 27.7 SE 16 21 1014.5 - 0.0 - Partly cloudy 10 - - - -
03/03:00pm 28.2 SE 15 19 1014.8 - 0.0 - Partly cloudy 10 - - - -
03/02:30pm 28.4 SE 15 19 1015.1 - 0.0 - Mostly clear 10 - - - -
03/02:00pm 28.3 SE 14 17 1015.4 - 0.0 Fine Mostly clear 20 - - - -
03/01:30pm 28.1 SE 13 17 1015.9 - 0.0 - Mostly clear 10 - - - -
03/01:00pm 28.0 SE 14 18 1016.4 - 0.0 - Mostly clear 10 - - - -
03/12:30pm 27.9 ESE 14 19 1016.5 - 0.0 - Mostly clear 10 - - - -
03/12:00pm 27.7 ESE 14 19 1016.7 - 0.0 - Partly cloudy 10 - - - -
03/11:30am 27.9 ESE 12 18 1016.8 - 0.0 - Mostly clear 10 - - - -
03/11:00am 27.5 ESE 14 19 1016.9 - 0.0 Fine Mostly clear 20 - - - -
03/10:30am 27.4 ESE 14 20 1016.9 - 0.0 - Mostly clear 10 - - - -
03/10:00am 27.0 ESE 15 20 1016.8 - 0.0 - Mostly clear 10 - - - -
03/09:30am 26.8 ESE 16 21 1016.6 - 0.0 - Partly cloudy 10 - - - -
03/09:00am 26.4 ESE 16 20 1016.2 - 0.0 - Partly cloudy 10 - - - -
03/08:30am 26.3 ESE 14 21 1015.7 - 0.0 - Partly cloudy 10 - - - -
03/08:00am 26.2 SE 17 21 1015.4 - 0.0 Distant precip. Mostly cloudy 20 - - - -
03/07:30am 25.8 SE 12 15 1015.2 - 0.0 - Partly cloudy 10 - - - -
03/07:00am 25.4 SE 17 19 1015.1 - 0.0 - Partly cloudy 10 - - - -
03/06:30am 25.4 E 9 13 1014.9 - 0.0 - - 10 - - - -
03/06:00am 24.2 E 13 17 1014.9 - 0.0 - Partly cloudy 9 - - - -
03/05:30am 24.8 E 17 21 1014.7 - 0.0 - Partly cloudy 10 - - - -
03/05:00am 25.6 ESE 16 19 1014.6 - 0.0 - Mostly cloudy 10 - - - -
03/04:30am 25.6 SE 17 22 1014.7 - 0.0 - Partly cloudy 10 - - - -
03/04:00am 25.9 ESE 17 22 1014.8 - 0.0 - Partly cloudy 10 - - - -
03/03:30am 25.8 ESE 16 22 1015.2 - 0.0 - Partly cloudy 10 - - - -
03/03:00am 25.7 ESE 17 22 1015.5 - 0.0 - Partly cloudy 10 - - - -
03/02:30am 25.5 ESE 16 22 1015.6 - 0.0 - Partly cloudy 10 - - - -
03/02:00am 26.1 ESE 16 23 1015.8 - 0.0 - Cloudy 10 - - - -
03/01:30am 26.2 ESE 14 20 1016.0 - 0.0 - Partly cloudy 10 - - - -
03/01:00am 26.1 ESE 13 18 1016.2 - 0.0 - Partly cloudy 10 - - - -
03/12:30am 26.5 ESE 13 20 1016.4 - 0.0 - Partly cloudy 10 - - - -
03/12:00am 26.5 ESE 14 19 1016.6 - 0.0 - Partly cloudy 10 - - - -
 
Date/Time
WST
Temp

°C
Wind Pressure Rain
since 9am
mm
Weather Cloud Vis
km
Sea
Height
m
Swell
Dir
 
Speed
knots
Gust
knots
hPa Trend Height
m
Period
s
Dir
02/11:30pm 26.6 ESE 13 19 1016.9 - 0.0 - Partly cloudy 10 - - - -
02/11:00pm 26.7 ESE 14 19 1016.9 - 0.0 - Mostly clear 10 - - - -
02/10:30pm 26.8 ESE 16 21 1016.7 - 0.0 - Partly cloudy 10 - - - -
02/10:00pm 26.9 E 13 18 1016.7 - 0.0 - Partly cloudy 10 - - - -
02/09:30pm 26.9 ESE 14 19 1016.4 - 0.0 - - 10 - - - -
02/09:00pm 26.9 ESE 15 21 1016.1 - 0.0 - Partly cloudy 10 - - - -
02/08:30pm 26.9 E 14 20 1015.7 - 0.0 - Partly cloudy 10 - - - -
02/08:00pm 26.9 ESE 14 19 1015.5 - 0.0 - - 10 - - - -
02/07:30pm 26.9 ESE 15 21 1015.2 - 0.0 - - 10 - - - -
02/07:00pm 27.0 ESE 15 19 1015.0 - 0.0 - Partly cloudy 10 - - - -
02/06:30pm 26.8 ESE 15 21 1014.9 - 0.0 - Partly cloudy 10 - - - -
02/06:00pm 27.3 ESE 17 23 1014.6 - 0.0 - Partly cloudy 10 - - - -
02/05:30pm 27.2 ESE 17 21 1014.5 - 0.0 - Partly cloudy 10 - - - -
02/05:00pm 27.1 SE 18 23 1014.5 - 0.0 Showers Mostly cloudy 14 - - - -
02/04:30pm 27.5 SE 16 22 1014.6 - 0.0 - Mostly clear 10 - - - -
02/04:00pm 28.0 SE 16 22 1014.8 - 0.0 - Mostly clear 10 - - - -
02/03:30pm 28.5 SE 17 21 1015.0 - 0.0 - Mostly clear 10 - - - -
02/03:00pm 28.2 ESE 16 21 1015.4 - 0.0 - Mostly clear 10 - - - -
02/02:30pm 28.5 SE 15 19 1015.8 - 0.0 - Mostly clear 10 - - - -
02/02:00pm 28.8 SE 15 20 1016.2 - 0.0 Fine Partly cloudy 20 - - - -
02/01:30pm 28.7 SE 15 20 1016.6 - 0.0 - Partly cloudy 10 - - - -
02/01:00pm 28.2 SE 15 19 1017.0 - 0.0 - Mostly clear 10 - - - -
02/12:30pm 28.1 ESE 15 21 1017.1 - 0.0 - Mostly clear 10 - - - -
02/12:00pm 28.0 ESE 15 20 1017.4 - 0.0 - Mostly clear 10 - - - -
02/11:30am 27.8 ESE 17 22 1017.5 - 0.0 - Mostly clear 10 - - - -
02/11:00am 27.7 ESE 15 21 1017.6 - 0.2 Fine Partly cloudy 20 - - - -
02/10:30am 27.2 ESE 15 21 1017.6 - 0.2 - Mostly clear 10 - - - -
02/10:00am 27.6 ESE 15 19 1017.5 - 0.2 - Mostly clear 10 - - - -
02/09:30am 27.1 ESE 15 20 1017.1 - 0.2 - Mostly clear 10 - - - -
02/09:00am 26.9 ESE 15 19 1016.7 - 0.2 - Mostly clear 10 - - - -
02/08:30am 26.8 ESE 14 19 1016.3 - 0.2 - Mostly clear 10 - - - -
02/08:00am 26.7 ESE 15 19 1016.0 - 0.2 Fine Mostly clear 20 - - - -
02/07:30am 26.7 ESE 14 19 1015.8 - 0.2 - Mostly clear 10 - - - -
02/07:00am 26.6 SE 13 16 1015.5 - 0.2 - Mostly clear 10 - - - -
02/06:30am 26.7 ESE 15 18 1015.2 - 0.2 - Partly cloudy 10 - - - -
02/06:00am 26.7 ESE 15 19 1015.2 - 0.2 - Partly cloudy 10 - - - -
02/05:30am 26.6 SE 14 18 1015.1 - 0.2 - Partly cloudy 10 - - - -
02/05:00am 26.7 SE 13 18 1015.1 - 0.2 - Mostly cloudy 10 - - - -
02/04:30am 26.6 ESE 11 17 1015.2 - 0.2 - Partly cloudy 10 - - - -
02/04:00am 26.6 ESE 13 16 1015.4 - 0.2 - Partly cloudy 10 - - - -
02/03:30am 26.6 ESE 11 15 1015.6 - 0.2 - Partly cloudy 10 - - - -
02/03:00am 26.5 E 10 13 1015.9 - 0.2 - - 10 - - - -
02/02:30am 26.5 ESE 10 13 1016.2 - 0.2 - - 10 - - - -
02/02:00am 26.4 E 10 14 1016.5 - 0.2 - - 10 - - - -
02/01:30am 26.4 E 10 13 1016.7 - 0.2 - - 10 - - - -
02/01:00am 26.4 E 9 11 1016.9 - 0.2 - - 10 - - - -
02/12:30am 26.6 ESE 10 14 1017.1 - 0.2 - Partly cloudy 10 - - - -
02/12:00am 26.7 E 11 15 1017.3 - 0.2 - Partly cloudy 10 - - - -
 
Date/Time
WST
Temp

°C
Wind Pressure Rain
since 9am
mm
Weather Cloud Vis
km
Sea
Height
m
Swell
Dir
 
Speed
knots
Gust
knots
hPa Trend Height
m
Period
s
Dir
01/11:30pm 26.6 ESE 9 13 1017.4 - 0.0 - Partly cloudy 10 - - - -
01/11:00pm 26.9 E 11 14 1017.2 - 0.0 - Mostly cloudy 10 - - - -
01/10:30pm 27.2 ESE 11 14 1017.3 - 0.0 - Partly cloudy 10 - - - -
01/10:00pm 27.2 ESE 13 16 1017.1 - 0.0 - Partly cloudy 10 - - - -
01/09:30pm 27.2 SE 12 15 1016.8 - 0.0 - Partly cloudy 10 - - - -
01/09:00pm 27.3 SE 12 16 1016.6 - 0.0 - Partly cloudy 10 - - - -
01/08:30pm 27.3 ESE 12 16 1016.3 - 0.0 - Partly cloudy 10 - - - -
01/08:00pm 27.4 ESE 13 16 1015.9 - 0.0 - Mostly clear 10 - - - -
01/07:30pm 27.5 SE 13 17 1015.7 - 0.0 - Partly cloudy 10 - - - -
01/07:00pm 27.6 SE 11 15 1015.5 - 0.0 - - 10 - - - -
01/06:30pm 27.8 SE 12 16 1015.3 - 0.0 - Partly cloudy 10 - - - -
01/06:00pm 27.9 ESE 12 15 1015.1 - 0.0 - Partly cloudy 10 - - - -
01/05:30pm 27.9 SE 12 16 1015.0 - 0.0 - Mostly clear 10 - - - -
01/05:00pm 28.3 SE 13 15 1014.9 - 0.0 Fine Mostly clear 25 - - - -
01/04:30pm 28.4 SE 12 16 1014.9 - 0.0 - Mostly clear 10 - - - -
01/04:00pm 28.6 SE 12 15 1015.1 - 0.0 - Mostly clear 10 - - - -
01/03:30pm 28.8 SE 12 15 1015.3 - 0.0 - Mostly clear 10 - - - -
01/03:00pm 28.6 ESE 11 15 1015.7 - 0.0 - Partly cloudy 10 - - - -
01/02:30pm 28.6 SE 11 13 1016.0 - 0.0 - Partly cloudy 10 - - - -
01/02:00pm 29.0 SE 11 15 1016.3 - 0.0 Fine Partly cloudy 25 - - - -
01/01:30pm 29.1 SE 10 15 1016.9 - 0.0 - Partly cloudy 10 - - - -
01/01:00pm 28.9 SE 11 15 1017.3 - 0.0 - Partly cloudy 10 - - - -
01/12:30pm 28.9 ESE 9 13 1017.5 - 0.0 - Mostly clear 10 - - - -
01/12:00pm 28.6 SE 10 14 1017.6 - 0.0 - Partly cloudy 10 - - - -
01/11:30am 28.5 SE 10 13 1017.7 - 0.0 - Mostly clear 10 - - - -

Other Formats:

Comma delimited format used in spreadsheet applications
http://www.bom.gov.au/fwo/IDW60701/IDW60701.96996.axf

JavaScript Object Notation format (JSON) in row-major order
http://www.bom.gov.au/fwo/IDW60701/IDW60701.96996.json